Time,TemperatureF,DewpointF,PressureIn,WindDirection,WindDirectionDegrees,WindSpeedMPH,WindSpeedGustMPH,Humidity,HourlyPrecipIn,Conditions,Clouds,dailyrainin,SoftwareType,DateUTC
2013-03-02 00:00:00,22.9,18.0,30.19,NE,43,2.0,9.0,80,0.00,,,0.00,weatherlink.com 1.10,2013-03-02 06:00:00,
2013-03-02 00:15:00,22.9,18.0,30.19,NNW,338,3.0,7.0,80,0.00,,,0.00,weatherlink.com 1.10,2013-03-02 06:15:00,
2013-03-02 00:30:00,23.0,18.0,30.19,WSW,247,5.0,9.0,81,0.00,,,0.00,weatherlink.com 1.10,2013-03-02 06:30:00,
2013-03-02 00:45:00,22.9,18.0,30.19,NNW,327,1.0,7.0,81,0.00,,,0.00,weatherlink.com 1.10,2013-03-02 06:45:00,
2013-03-02 01:00:00,22.8,18.0,30.20,North,351,6.0,8.0,81,0.00,,,0.00,weatherlink.com 1.10,2013-03-02 07:00:00,
2013-03-02 01:15:00,22.4,17.0,30.20,NW,326,0.0,7.0,81,0.00,,,0.00,weatherlink.com 1.10,2013-03-02 07:15:00,
2013-03-02 01:30:00,21.9,17.0,30.20,NW,323,6.0,9.0,81,0.00,,,0.00,weatherlink.com 1.10,2013-03-02 07:30:00,
2013-03-02 01:45:00,21.6,17.0,30.20,NW,319,2.0,6.0,82,0.00,,,0.00,weatherlink.com 1.10,2013-03-02 07:45:00,
2013-03-02 02:00:00,21.6,17.0,30.20,NW,309,4.0,5.0,82,0.00,,,0.00,weatherlink.com 1.10,2013-03-02 08:00:00,
2013-03-02 02:16:00,21.7,17.0,30.20,NNW,348,6.0,9.0,81,0.00,,,0.00,weatherlink.com 1.10,2013-03-02 08:16:00,
2013-03-02 02:30:00,21.2,16.3,30.19,NNW,338,3.0,10.0,81,0.00,,,0.00,VWS V14.01,2013-03-02 08:30:00,
2013-03-02 02:31:00,21.2,16.0,30.19,WSW,245,0.0,7.0,81,0.00,,,0.00,weatherlink.com 1.10,2013-03-02 08:31:00,
2013-03-02 02:46:00,20.7,16.0,30.19,NNE,23,3.0,12.0,81,0.00,,,0.00,weatherlink.com 1.10,2013-03-02 08:46:00,
2013-03-02 03:00:00,20.3,15.4,30.19,NNW,338,3.0,12.0,81,0.00,,,0.00,VWS V14.01,2013-03-02 09:00:00,
2013-03-02 03:01:00,20.3,15.0,30.19,ENE,58,2.0,8.0,81,0.00,,,0.00,weatherlink.com 1.10,2013-03-02 09:01:00,
2013-03-02 03:16:00,19.8,15.0,30.19,North,351,1.0,10.0,81,0.00,,,0.00,weatherlink.com 1.10,2013-03-02 09:16:00,
2013-03-02 03:30:00,19.2,14.3,30.19,NNW,338,3.0,10.0,81,0.00,,,0.00,VWS V14.01,2013-03-02 09:30:00,
2013-03-02 03:31:00,19.2,14.0,30.19,NNW,331,5.0,8.0,81,0.00,,,0.00,weatherlink.com 1.10,2013-03-02 09:31:00,
2013-03-02 03:46:00,18.9,14.0,30.19,NNW,336,5.0,9.0,82,0.00,,,0.00,weatherlink.com 1.10,2013-03-02 09:46:00,
2013-03-02 04:00:00,18.8,14.2,30.19,ENE,68,3.0,11.0,82,0.00,,,0.00,VWS V14.01,2013-03-02 10:00:00,
2013-03-02 04:01:00,18.7,14.0,30.19,NE,46,2.0,6.0,82,0.00,,,0.00,weatherlink.com 1.10,2013-03-02 10:01:00,
2013-03-02 04:16:00,18.2,14.0,30.19,WNW,292,7.0,9.0,82,0.00,,,0.00,weatherlink.com 1.10,2013-03-02 10:16:00,
2013-03-02 04:30:00,16.9,12.4,30.20,NNW,338,3.0,13.0,82,0.00,,,0.00,VWS V14.01,2013-03-02 10:30:00,
2013-03-02 04:31:00,16.8,12.0,30.20,North,349,5.0,11.0,82,0.00,,,0.00,weatherlink.com 1.10,2013-03-02 10:31:00,
2013-03-02 04:46:00,16.7,12.0,30.20,ENE,63,1.0,8.0,83,0.00,,,0.00,weatherlink.com 1.10,2013-03-02 10:46:00,
2013-03-02 05:00:00,16.7,12.4,30.20,NNW,338,3.0,11.0,83,0.00,,,0.00,VWS V14.01,2013-03-02 11:00:00,
2013-03-02 05:01:00,16.7,12.0,30.20,NE,40,2.0,10.0,83,0.00,,,0.00,weatherlink.com 1.10,2013-03-02 11:01:00,
2013-03-02 05:16:00,16.9,13.0,30.20,NNW,344,7.0,7.0,83,0.00,,,0.00,weatherlink.com 1.10,2013-03-02 11:16:00,
2013-03-02 05:30:00,17.0,12.7,30.20,NNW,338,2.0,10.0,83,0.00,,,0.00,VWS V14.01,2013-03-02 11:30:00,
2013-03-02 05:31:00,17.0,13.0,30.20,NNW,328,1.0,10.0,83,0.00,,,0.00,weatherlink.com 1.10,2013-03-02 11:31:00,
2013-03-02 05:46:00,17.0,12.0,30.20,NE,36,2.0,10.0,82,0.00,,,0.00,weatherlink.com 1.10,2013-03-02 11:46:00,
2013-03-02 06:00:00,17.1,12.6,30.20,NNW,338,3.0,10.0,82,0.00,,,0.00,VWS V14.01,2013-03-02 12:00:00,
2013-03-02 06:01:00,17.1,13.0,30.20,NNE,19,5.0,8.0,82,0.00,,,0.00,weatherlink.com 1.10,2013-03-02 12:01:00,
2013-03-02 06:16:00,17.0,13.0,30.20,NNW,340,3.0,6.0,83,0.00,,,0.00,weatherlink.com 1.10,2013-03-02 12:16:00,
2013-03-02 06:31:00,17.0,12.0,30.21,NNW,335,5.0,8.0,82,0.00,,,0.00,weatherlink.com 1.10,2013-03-02 12:31:00,
2013-03-02 06:46:00,17.1,13.0,30.21,NNE,26,1.0,6.0,82,0.00,,,0.00,weatherlink.com 1.10,2013-03-02 12:46:00,
2013-03-02 06:51:00,17.1,12.6,30.21,NNW,340,2.0,7.0,82,0.00,,,0.00,VWS V14.01,2013-03-02 12:51:00,
2013-03-02 06:56:00,17.1,12.6,30.21,NE,46,0.0,7.0,82,0.00,,BKN031,0.00,VWS V14.01,2013-03-02 12:56:00,
2013-03-02 07:01:00,17.3,12.8,30.22,NNW,333,1.0,2.0,82,0.00,,BKN031,0.00,VWS V14.01,2013-03-02 13:01:00,
2013-03-02 07:06:00,17.3,12.8,30.22,WNW,286,1.0,4.0,82,0.00,,BKN031,0.00,VWS V14.01,2013-03-02 13:06:00,
2013-03-02 07:11:00,17.4,12.6,30.22,NNE,30,5.0,6.0,81,0.00,,BKN031,0.00,VWS V14.01,2013-03-02 13:11:00,
2013-03-02 07:16:00,17.3,12.5,30.22,NNE,24,1.0,8.0,81,0.00,,BKN031,0.00,VWS V14.01,2013-03-02 13:16:00,
2013-03-02 07:21:00,17.3,12.5,30.22,ENE,64,2.0,8.0,81,0.00,,BKN031,0.00,VWS V14.01,2013-03-02 13:21:00,
2013-03-02 07:26:00,17.2,12.1,30.22,NNW,336,3.0,8.0,80,0.00,,BKN031,0.00,VWS V14.01,2013-03-02 13:26:00,
2013-03-02 07:31:00,17.0,11.9,30.22,North,349,3.0,6.0,80,0.00,,BKN031,0.00,VWS V14.01,2013-03-02 13:31:00,
2013-03-02 07:36:00,16.9,11.8,30.22,NW,326,4.0,6.0,80,0.00,,BKN220,0.00,VWS V14.01,2013-03-02 13:36:00,
2013-03-02 07:41:00,16.7,11.6,30.22,NNE,12,5.0,8.0,80,0.00,,BKN220,0.00,VWS V14.01,2013-03-02 13:41:00,
2013-03-02 07:46:00,16.7,11.3,30.22,NE,43,3.0,9.0,79,0.00,,BKN220,0.00,VWS V14.01,2013-03-02 13:46:00,
2013-03-02 07:51:00,16.7,11.6,30.22,NW,316,4.0,9.0,80,0.00,,BKN220,0.00,VWS V14.01,2013-03-02 13:51:00,
2013-03-02 07:56:00,16.7,11.6,30.22,NE,50,4.0,9.0,80,0.00,,BKN220,0.00,VWS V14.01,2013-03-02 13:56:00,
2013-03-02 08:01:00,16.8,11.4,30.22,NW,321,6.0,6.0,79,0.00,,BKN220,0.00,VWS V14.01,2013-03-02 14:01:00,
2013-03-02 08:06:00,16.9,11.5,30.22,NNW,331,6.0,10.0,79,0.00,,BKN220,0.00,VWS V14.01,2013-03-02 14:06:00,
2013-03-02 08:11:00,16.9,11.2,30.22,NNE,26,3.0,10.0,78,0.00,,BKN220,0.00,VWS V14.01,2013-03-02 14:11:00,
2013-03-02 08:16:00,17.0,11.1,30.22,NW,322,2.0,10.0,77,0.00,,BKN220,0.00,VWS V14.01,2013-03-02 14:16:00,
2013-03-02 08:21:00,17.1,11.1,30.22,NNE,22,2.0,10.0,77,0.00,,BKN220,0.00,VWS V14.01,2013-03-02 14:21:00,
2013-03-02 08:26:00,17.7,11.7,30.22,NNW,327,4.0,10.0,77,0.00,,BKN220,0.00,VWS V14.01,2013-03-02 14:26:00,
2013-03-02 08:31:00,17.8,11.2,30.22,NNE,24,9.0,9.0,75,0.00,,BKN220,0.00,VWS V14.01,2013-03-02 14:31:00,
2013-03-02 08:36:00,17.8,11.2,30.22,ENE,76,2.0,12.0,75,0.00,,BKN220,0.00,VWS V14.01,2013-03-02 14:36:00,
2013-03-02 08:41:00,18.3,11.7,30.22,NNE,33,6.0,12.0,75,0.00,,BKN220,0.00,VWS V14.01,2013-03-02 14:41:00,
2013-03-02 08:46:00,19.0,12.4,30.22,WNW,295,0.0,12.0,75,0.00,,BKN220,0.00,VWS V14.01,2013-03-02 14:46:00,
2013-03-02 08:51:00,19.5,12.3,30.22,NNE,28,4.0,12.0,73,0.00,,BKN220,0.00,VWS V14.01,2013-03-02 14:51:00,
2013-03-02 08:56:00,19.5,12.3,30.22,West,275,0.0,12.0,73,0.00,,BKN220,0.00,VWS V14.01,2013-03-02 14:56:00,
2013-03-02 09:01:00,20.0,12.4,30.22,NE,34,5.0,6.0,72,0.00,,BKN220,0.00,VWS V14.01,2013-03-02 15:01:00,
2013-03-02 09:06:00,19.3,12.1,30.22,WNW,296,1.0,9.0,73,0.00,,BKN220,0.00,VWS V14.01,2013-03-02 15:06:00,
2013-03-02 09:11:00,19.4,12.2,30.22,NE,38,7.0,9.0,73,0.00,,BKN220,0.00,VWS V14.01,2013-03-02 15:11:00,
2013-03-02 09:16:00,19.4,11.9,30.22,NNE,31,2.0,9.0,72,0.00,,BKN220,0.00,VWS V14.01,2013-03-02 15:16:00,
2013-03-02 09:21:00,20.0,12.8,30.22,NW,310,4.0,9.0,73,0.00,,BKN220,0.00,VWS V14.01,2013-03-02 15:21:00,
2013-03-02 09:26:00,20.2,12.6,30.22,NNE,12,5.0,9.0,72,0.00,,BKN220,0.00,VWS V14.01,2013-03-02 15:26:00,
2013-03-02 09:31:00,20.7,12.8,30.22,NNW,339,1.0,5.0,71,0.00,,BKN220,0.00,VWS V14.01,2013-03-02 15:31:00,
2013-03-02 09:36:00,21.5,13.6,30.22,NE,55,2.0,5.0,71,0.00,,BKN250,0.00,VWS V14.01,2013-03-02 15:36:00,
2013-03-02 09:41:00,22.0,13.4,30.23,East,92,6.0,9.0,69,0.00,,BKN250,0.00,VWS V14.01,2013-03-02 15:41:00,
2013-03-02 09:46:00,22.4,13.8,30.23,NNW,342,5.0,9.0,69,0.00,,BKN250,0.00,VWS V14.01,2013-03-02 15:46:00,
2013-03-02 09:51:00,22.4,13.8,30.23,NNW,347,3.0,9.0,69,0.00,,BKN250,0.00,VWS V14.01,2013-03-02 15:51:00,
2013-03-02 09:56:00,22.6,13.6,30.22,North,351,4.0,10.0,68,0.00,,BKN250,0.00,VWS V14.01,2013-03-02 15:56:00,
2013-03-02 10:01:00,22.8,14.2,30.22,North,11,3.0,4.0,69,0.00,,BKN250,0.00,VWS V14.01,2013-03-02 16:01:00,
2013-03-02 10:06:00,22.9,13.6,30.22,NE,49,3.0,7.0,67,0.00,,BKN250,0.00,VWS V14.01,2013-03-02 16:06:00,
2013-03-02 10:11:00,22.3,13.7,30.22,North,355,2.0,7.0,69,0.00,,BKN250,0.00,VWS V14.01,2013-03-02 16:11:00,
2013-03-02 10:16:00,22.1,13.5,30.22,ENE,76,3.0,8.0,69,0.00,,BKN250,0.00,VWS V14.01,2013-03-02 16:16:00,
2013-03-02 10:21:00,22.4,14.1,30.22,NNE,27,4.0,8.0,70,0.00,,BKN250,0.00,VWS V14.01,2013-03-02 16:21:00,
2013-03-02 10:26:00,22.9,14.3,30.22,NE,38,6.0,8.0,69,0.00,,BKN250,0.00,VWS V14.01,2013-03-02 16:26:00,
2013-03-02 10:31:00,23.4,14.4,30.22,NE,49,9.0,9.0,68,0.00,,BKN250,0.00,VWS V14.01,2013-03-02 16:31:00,
2013-03-02 10:36:00,23.9,14.9,30.23,NNW,344,2.0,9.0,68,0.00,,BKN250,0.00,VWS V14.01,2013-03-02 16:36:00,
2013-03-02 10:41:00,24.1,15.4,30.22,NNW,346,5.0,9.0,69,0.00,,BKN250,0.00,VWS V14.01,2013-03-02 16:41:00,
2013-03-02 10:46:00,24.6,15.2,30.23,NNE,30,3.0,9.0,67,0.00,,BKN250,0.00,VWS V14.01,2013-03-02 16:46:00,
2013-03-02 10:51:00,24.4,15.0,30.23,NW,313,6.0,9.0,67,0.00,,BKN250,0.00,VWS V14.01,2013-03-02 16:51:00,
2013-03-02 10:56:00,24.6,15.2,30.23,NW,326,2.0,9.0,67,0.00,,BKN250,0.00,VWS V14.01,2013-03-02 16:56:00,
2013-03-02 11:01:00,24.8,15.4,30.23,North,11,7.0,7.0,67,0.00,,BKN250,0.00,VWS V14.01,2013-03-02 17:01:00,
2013-03-02 11:06:00,25.0,15.9,30.23,NNE,22,12.0,12.0,68,0.00,,BKN250,0.00,VWS V14.01,2013-03-02 17:06:00,
2013-03-02 11:11:00,25.1,15.7,30.23,WNW,287,1.0,12.0,67,0.00,,BKN250,0.00,VWS V14.01,2013-03-02 17:11:00,
2013-03-02 11:16:00,25.4,15.3,30.23,NE,43,5.0,12.0,65,0.00,,BKN250,0.00,VWS V14.01,2013-03-02 17:16:00,
2013-03-02 11:21:00,25.4,15.3,30.23,NW,318,4.0,12.0,65,0.00,,BKN250,0.00,VWS V14.01,2013-03-02 17:21:00,
2013-03-02 11:26:00,24.8,14.7,30.23,North,11,1.0,12.0,65,0.00,,BKN250,0.00,VWS V14.01,2013-03-02 17:26:00,
2013-03-02 11:31:00,24.9,15.5,30.22,NNE,27,6.0,9.0,67,0.00,,BKN250,0.00,VWS V14.01,2013-03-02 17:31:00,
2013-03-02 11:36:00,24.7,15.0,30.22,NE,36,8.0,12.0,66,0.00,,BKN250,0.00,VWS V14.01,2013-03-02 17:36:00,
2013-03-02 11:41:00,24.5,15.1,30.22,NNE,17,7.0,12.0,67,0.00,,BKN250,0.00,VWS V14.01,2013-03-02 17:41:00,
2013-03-02 11:46:00,25.2,15.8,30.22,ENE,58,8.0,12.0,67,0.00,,BKN250,0.00,VWS V14.01,2013-03-02 17:46:00,
2013-03-02 11:51:00,25.0,15.3,30.22,NW,304,5.0,12.0,66,0.00,,BKN250,0.00,VWS V14.01,2013-03-02 17:51:00,
2013-03-02 11:56:00,24.9,15.2,30.22,North,350,4.0,12.0,66,0.00,,BKN250,0.00,VWS V14.01,2013-03-02 17:56:00,
2013-03-02 12:01:00,25.1,15.4,30.22,ESE,118,2.0,10.0,66,0.00,,BKN250,0.00,VWS V14.01,2013-03-02 18:01:00,
2013-03-02 12:06:00,25.5,15.7,30.22,NW,317,6.0,11.0,66,0.00,,BKN250,0.00,VWS V14.01,2013-03-02 18:06:00,
2013-03-02 12:11:00,25.9,15.8,30.21,NE,53,5.0,11.0,65,0.00,,BKN250,0.00,VWS V14.01,2013-03-02 18:11:00,
2013-03-02 12:16:00,26.1,16.0,30.21,NNW,348,5.0,11.0,65,0.00,,BKN250,0.00,VWS V14.01,2013-03-02 18:16:00,
2013-03-02 12:21:00,26.5,15.3,30.21,NW,322,2.0,11.0,62,0.00,,BKN250,0.00,VWS V14.01,2013-03-02 18:21:00,
2013-03-02 12:26:00,26.3,15.4,30.21,NNW,329,1.0,11.0,63,0.00,,BKN250,0.00,VWS V14.01,2013-03-02 18:26:00,
2013-03-02 12:31:00,26.4,15.5,30.21,NW,323,5.0,10.0,63,0.00,,BKN250,0.00,VWS V14.01,2013-03-02 18:31:00,
2013-03-02 12:36:00,26.6,16.1,30.21,NNW,340,3.0,10.0,64,0.00,,BKN250,0.00,VWS V14.01,2013-03-02 18:36:00,
2013-03-02 12:41:00,26.4,15.9,30.20,NNE,18,6.0,12.0,64,0.00,,BKN250,0.00,VWS V14.01,2013-03-02 18:41:00,
2013-03-02 12:46:00,26.6,16.1,30.20,ENE,58,1.0,12.0,64,0.00,,BKN250,0.00,VWS V14.01,2013-03-02 18:46:00,
2013-03-02 12:51:00,26.6,16.1,30.20,NW,310,1.0,12.0,64,0.00,,BKN250,0.00,VWS V14.01,2013-03-02 18:51:00,
2013-03-02 12:56:00,26.3,15.4,30.20,NW,317,4.0,12.0,63,0.00,,BKN250,0.00,VWS V14.01,2013-03-02 18:56:00,
2013-03-02 13:01:00,26.3,15.8,30.20,North,11,2.0,6.0,64,0.00,,BKN250,0.00,VWS V14.01,2013-03-02 19:01:00,
2013-03-02 13:06:00,26.6,16.1,30.20,NW,313,5.0,7.0,64,0.00,,BKN250,0.00,VWS V14.01,2013-03-02 19:06:00,
2013-03-02 13:11:00,26.4,15.5,30.20,NNE,28,3.0,9.0,63,0.00,,BKN250,0.00,VWS V14.01,2013-03-02 19:11:00,
2013-03-02 13:16:00,26.6,16.1,30.20,ENE,74,1.0,9.0,64,0.00,,BKN250,0.00,VWS V14.01,2013-03-02 19:16:00,
2013-03-02 13:21:00,26.9,15.6,30.19,NE,53,5.0,9.0,62,0.00,,BKN250,0.00,VWS V14.01,2013-03-02 19:21:00,
2013-03-02 13:26:00,27.0,15.4,30.19,SSE,166,2.0,9.0,61,0.00,,BKN250,0.00,VWS V14.01,2013-03-02 19:26:00,
2013-03-02 13:31:00,27.3,14.9,30.19,SW,233,5.0,5.0,59,0.00,,BKN250,0.00,VWS V14.01,2013-03-02 19:31:00,
2013-03-02 13:36:00,27.3,14.9,30.19,WNW,302,3.0,10.0,59,0.00,,BKN250,0.00,VWS V14.01,2013-03-02 19:36:00,
2013-03-02 13:41:00,26.9,14.9,30.19,West,277,4.0,10.0,60,0.00,,BKN250,0.00,VWS V14.01,2013-03-02 19:41:00,
2013-03-02 13:46:00,26.5,14.5,30.19,NNE,13,6.0,13.0,60,0.00,,SCT250,0.00,VWS V14.01,2013-03-02 19:46:00,
2013-03-02 13:51:00,26.9,14.9,30.19,NE,40,7.0,13.0,60,0.00,,SCT250,0.00,VWS V14.01,2013-03-02 19:51:00,
2013-03-02 13:56:00,26.4,14.8,30.19,SSW,209,4.0,13.0,61,0.00,,SCT250,0.00,VWS V14.01,2013-03-02 19:56:00,
2013-03-02 14:01:00,26.7,15.1,30.19,WNW,291,5.0,7.0,61,0.00,,SCT250,0.00,VWS V14.01,2013-03-02 20:01:00,
2013-03-02 14:06:00,26.4,14.8,30.19,NW,309,6.0,10.0,61,0.00,,SCT250,0.00,VWS V14.01,2013-03-02 20:06:00,
2013-03-02 14:11:00,26.6,15.0,30.19,North,349,1.0,10.0,61,0.00,,SCT250,0.00,VWS V14.01,2013-03-02 20:11:00,
2013-03-02 14:16:00,26.8,14.8,30.19,NE,36,6.0,10.0,60,0.00,,SCT250,0.00,VWS V14.01,2013-03-02 20:16:00,
2013-03-02 14:21:00,26.5,14.5,30.19,NNE,27,7.0,10.0,60,0.00,,SCT250,0.00,VWS V14.01,2013-03-02 20:21:00,
2013-03-02 14:26:00,26.5,14.9,30.19,East,79,3.0,10.0,61,0.00,,SCT250,0.00,VWS V14.01,2013-03-02 20:26:00,
2013-03-02 14:31:00,26.9,15.3,30.19,SSE,151,1.0,7.0,61,0.00,,SCT250,0.00,VWS V14.01,2013-03-02 20:31:00,
2013-03-02 14:36:00,26.7,14.3,30.19,NNW,328,9.0,9.0,59,0.00,,SCT250,0.00,VWS V14.01,2013-03-02 20:36:00,
2013-03-02 14:41:00,26.8,14.8,30.19,NNE,32,6.0,9.0,60,0.00,,SCT250,0.00,VWS V14.01,2013-03-02 20:41:00,
2013-03-02 14:46:00,26.7,14.3,30.19,NNE,32,8.0,9.0,59,0.00,,SCT250,0.00,VWS V14.01,2013-03-02 20:46:00,
2013-03-02 14:51:00,26.7,15.1,30.19,WNW,288,1.0,9.0,61,0.00,,SCT250,0.00,VWS V14.01,2013-03-02 20:51:00,
2013-03-02 14:56:00,26.5,14.5,30.19,NE,38,6.0,9.0,60,0.00,,SCT250,0.00,VWS V14.01,2013-03-02 20:56:00,
2013-03-02 15:01:00,26.3,14.3,30.19,NNW,333,7.0,10.0,60,0.00,,SCT250,0.00,VWS V14.01,2013-03-02 21:01:00,
2013-03-02 15:06:00,26.6,15.0,30.19,NW,319,3.0,10.0,61,0.00,,SCT250,0.00,VWS V14.01,2013-03-02 21:06:00,
2013-03-02 15:11:00,26.8,14.8,30.19,West,272,3.0,10.0,60,0.00,,SCT250,0.00,VWS V14.01,2013-03-02 21:11:00,
2013-03-02 15:16:00,27.0,15.4,30.19,WNW,296,4.0,10.0,61,0.00,,SCT250,0.00,VWS V14.01,2013-03-02 21:16:00,
2013-03-02 15:21:00,27.0,14.6,30.19,North,11,8.0,10.0,59,0.00,,SCT250,0.00,VWS V14.01,2013-03-02 21:21:00,
2013-03-02 15:26:00,27.3,15.3,30.19,ENE,69,8.0,10.0,60,0.00,,SCT250,0.00,VWS V14.01,2013-03-02 21:26:00,
2013-03-02 15:31:00,26.8,14.8,30.19,NE,44,2.0,4.0,60,0.00,,SCT250,0.00,VWS V14.01,2013-03-02 21:31:00,
2013-03-02 15:36:00,26.6,15.0,30.18,NE,36,2.0,9.0,61,0.00,,SCT250,0.00,VWS V14.01,2013-03-02 21:36:00,
2013-03-02 15:41:00,26.5,14.9,30.19,NNW,344,2.0,9.0,61,0.00,,FEW250,0.00,VWS V14.01,2013-03-02 21:41:00,
2013-03-02 15:46:00,26.3,15.1,30.18,NE,53,4.0,10.0,62,0.00,,FEW250,0.00,VWS V14.01,2013-03-02 21:46:00,
2013-03-02 15:51:00,26.1,15.2,30.18,NNE,19,6.0,11.0,63,0.00,,FEW250,0.00,VWS V14.01,2013-03-02 21:51:00,
2013-03-02 15:56:00,25.8,15.0,30.18,North,11,3.0,11.0,63,0.00,,FEW250,0.00,VWS V14.01,2013-03-02 21:56:00,
2013-03-02 16:01:00,25.7,14.9,30.18,NE,46,9.0,9.0,63,0.00,,FEW250,0.00,VWS V14.01,2013-03-02 22:01:00,
2013-03-02 16:06:00,25.7,14.9,30.18,NE,51,2.0,9.0,63,0.00,,FEW250,0.00,VWS V14.01,2013-03-02 22:06:00,
2013-03-02 16:11:00,25.6,14.4,30.18,NE,49,4.0,13.0,62,0.00,,FEW250,0.00,VWS V14.01,2013-03-02 22:11:00,
2013-03-02 16:16:00,25.2,14.0,30.18,NNE,17,4.0,13.0,62,0.00,,FEW250,0.00,VWS V14.01,2013-03-02 22:16:00,
2013-03-02 16:21:00,25.2,14.0,30.18,NNE,26,4.0,13.0,62,0.00,,FEW250,0.00,VWS V14.01,2013-03-02 22:21:00,
2013-03-02 16:26:00,25.0,13.8,30.18,WSW,242,4.0,13.0,62,0.00,,FEW250,0.00,VWS V14.01,2013-03-02 22:26:00,
2013-03-02 16:31:00,25.0,14.2,30.18,NE,53,6.0,7.0,63,0.00,,FEW250,0.00,VWS V14.01,2013-03-02 22:31:00,
2013-03-02 16:36:00,24.8,13.6,30.18,ENE,73,10.0,11.0,62,0.00,,FEW250,0.00,VWS V14.01,2013-03-02 22:36:00,
2013-03-02 16:41:00,24.7,13.9,30.18,NNW,340,2.0,11.0,63,0.00,,FEW250,0.00,VWS V14.01,2013-03-02 22:41:00,
2013-03-02 16:46:00,24.7,13.9,30.18,NNW,337,6.0,11.0,63,0.00,,FEW250,0.00,VWS V14.01,2013-03-02 22:46:00,
2013-03-02 16:51:00,24.7,13.9,30.18,NE,55,3.0,11.0,63,0.00,,FEW250,0.00,VWS V14.01,2013-03-02 22:51:00,
2013-03-02 16:56:00,24.6,14.2,30.19,North,11,2.0,11.0,64,0.00,,FEW250,0.00,VWS V14.01,2013-03-02 22:56:00,
2013-03-02 17:01:00,24.8,14.0,30.19,NE,43,1.0,4.0,63,0.00,,FEW250,0.00,VWS V14.01,2013-03-02 23:01:00,
2013-03-02 17:06:00,25.0,14.2,30.19,NNE,15,2.0,6.0,63,0.00,,FEW250,0.00,VWS V14.01,2013-03-02 23:06:00,
2013-03-02 17:11:00,25.1,14.3,30.19,ENE,75,0.0,6.0,63,0.00,,FEW250,0.00,VWS V14.01,2013-03-02 23:11:00,
2013-03-02 17:16:00,25.2,14.4,30.19,NNW,345,0.0,6.0,63,0.00,,FEW250,0.00,VWS V14.01,2013-03-02 23:16:00,
2013-03-02 17:21:00,25.2,14.4,30.19,NW,321,0.0,6.0,63,0.00,,FEW250,0.00,VWS V14.01,2013-03-02 23:21:00,
2013-03-02 17:26:00,24.9,14.1,30.19,NNE,28,1.0,6.0,63,0.00,,FEW250,0.00,VWS V14.01,2013-03-02 23:26:00,
2013-03-02 17:31:00,24.3,13.9,30.19,NE,42,1.0,1.0,64,0.00,,FEW250,0.00,VWS V14.01,2013-03-02 23:31:00,
2013-03-02 17:36:00,23.9,13.9,30.19,NNE,17,1.0,2.0,65,0.00,,FEW250,0.00,VWS V14.01,2013-03-02 23:36:00,
2013-03-02 17:41:00,23.4,13.4,30.19,NNE,22,1.0,2.0,65,0.00,,CLR,0.00,VWS V14.01,2013-03-02 23:41:00,
2013-03-02 17:46:00,22.8,13.5,30.20,NE,46,2.0,2.0,67,0.00,,CLR,0.00,VWS V14.01,2013-03-02 23:46:00,
2013-03-02 17:51:00,22.2,13.3,30.19,NNE,19,1.0,3.0,68,0.00,,CLR,0.00,VWS V14.01,2013-03-02 23:51:00,
2013-03-02 17:56:00,21.8,12.9,30.19,NNE,27,1.0,3.0,68,0.00,,CLR,0.00,VWS V14.01,2013-03-02 23:56:00,
2013-03-02 18:01:00,21.3,12.7,30.19,NE,39,0.0,1.0,69,0.00,,CLR,0.00,VWS V14.01,2013-03-03 00:01:00,
2013-03-02 18:06:00,20.9,12.4,30.20,NE,36,0.0,1.0,69,0.00,,CLR,0.00,VWS V14.01,2013-03-03 00:06:00,
2013-03-02 18:11:00,20.6,12.7,30.20,NE,34,0.0,1.0,71,0.00,,CLR,0.00,VWS V14.01,2013-03-03 00:11:00,
2013-03-02 18:16:00,20.4,12.5,30.20,NNE,16,0.0,1.0,71,0.00,,CLR,0.00,VWS V14.01,2013-03-03 00:16:00,
2013-03-02 18:21:00,20.1,12.9,30.20,NNE,16,0.0,1.0,73,0.00,,CLR,0.00,VWS V14.01,2013-03-03 00:21:00,
2013-03-02 18:26:00,19.9,12.3,30.20,NNE,13,0.0,1.0,72,0.00,,CLR,0.00,VWS V14.01,2013-03-03 00:26:00,
2013-03-02 18:31:00,19.7,12.5,30.20,North,11,0.0,0.0,73,0.00,,CLR,0.00,VWS V14.01,2013-03-03 00:31:00,
2013-03-02 18:36:00,19.5,12.3,30.20,NNE,17,0.0,1.0,73,0.00,,CLR,0.00,VWS V14.01,2013-03-03 00:36:00,
2013-03-02 18:41:00,19.3,12.1,30.20,NNE,17,0.0,1.0,73,0.00,,CLR,0.00,VWS V14.01,2013-03-03 00:41:00,
2013-03-02 18:46:00,19.2,12.0,30.21,NW,326,1.0,1.0,73,0.00,,CLR,0.00,VWS V14.01,2013-03-03 00:46:00,
2013-03-02 18:51:00,19.0,12.1,30.21,NNE,15,0.0,1.0,74,0.00,,CLR,0.00,VWS V14.01,2013-03-03 00:51:00,
2013-03-02 18:56:00,18.9,12.0,30.20,NNW,337,0.0,1.0,74,0.00,,CLR,0.00,VWS V14.01,2013-03-03 00:56:00,
2013-03-02 19:01:00,18.0,10.5,30.20,SW,236,0.0,1.0,72,0.00,,CLR,0.00,VWS V14.01,2013-03-03 01:01:00,
2013-03-02 19:06:00,16.2,9.4,30.20,WSW,242,0.0,1.0,74,0.00,,CLR,0.00,VWS V14.01,2013-03-03 01:06:00,
2013-03-02 19:11:00,15.2,9.6,30.20,WSW,242,0.0,1.0,78,0.00,,CLR,0.00,VWS V14.01,2013-03-03 01:11:00,
2013-03-02 19:16:00,14.8,9.8,30.20,WSW,242,0.0,1.0,80,0.00,,CLR,0.00,VWS V14.01,2013-03-03 01:16:00,
2013-03-02 19:21:00,14.4,9.6,30.20,WSW,242,0.0,1.0,81,0.00,,CLR,0.00,VWS V14.01,2013-03-03 01:21:00,
2013-03-02 19:26:00,14.2,9.7,30.20,WSW,242,0.0,1.0,82,0.00,,CLR,0.00,VWS V14.01,2013-03-03 01:26:00,
2013-03-02 19:31:00,13.9,9.4,30.20,WSW,242,0.0,0.0,82,0.00,,CLR,0.00,VWS V14.01,2013-03-03 01:31:00,
2013-03-02 19:36:00,13.4,9.2,30.20,WSW,242,0.0,0.0,83,0.00,,CLR,0.00,VWS V14.01,2013-03-03 01:36:00,
2013-03-02 19:41:00,13.9,10.2,30.20,WSW,242,0.0,0.0,85,0.00,,CLR,0.00,VWS V14.01,2013-03-03 01:41:00,
2013-03-02 19:46:00,13.8,9.3,30.20,SW,228,0.0,1.0,82,0.00,,CLR,0.00,VWS V14.01,2013-03-03 01:46:00,
2013-03-02 19:51:00,13.2,8.8,30.19,SW,228,0.0,1.0,82,0.00,,CLR,0.00,VWS V14.01,2013-03-03 01:51:00,
2013-03-02 19:56:00,12.8,8.6,30.19,SW,226,0.0,1.0,83,0.00,,CLR,0.00,VWS V14.01,2013-03-03 01:56:00,
2013-03-02 20:01:00,12.5,8.3,30.19,SW,226,0.0,0.0,83,0.00,,CLR,0.00,VWS V14.01,2013-03-03 02:01:00,
2013-03-02 20:06:00,12.2,8.0,30.19,SSW,205,0.0,1.0,83,0.00,,CLR,0.00,VWS V14.01,2013-03-03 02:06:00,
2013-03-02 20:11:00,12.2,8.6,30.19,SSW,206,0.0,1.0,85,0.00,,CLR,0.00,VWS V14.01,2013-03-03 02:11:00,
2013-03-02 20:30:00,11.5,8.0,30.20,SSW,205,0.0,0.0,85,0.00,,,0.00,weatherlink.com 1.10,2013-03-03 02:30:00,
2013-03-02 20:45:00,11.1,8.0,30.20,SSW,205,0.0,1.0,85,0.00,,,0.00,weatherlink.com 1.10,2013-03-03 02:45:00,
2013-03-02 21:00:00,10.3,7.0,30.20,SSW,206,0.0,0.0,86,0.00,,,0.00,weatherlink.com 1.10,2013-03-03 03:00:00,
2013-03-02 21:16:00,9.2,5.0,30.21,West,278,0.0,2.0,82,0.00,,,0.00,weatherlink.com 1.10,2013-03-03 03:16:00,
2013-03-02 21:30:00,8.3,5.2,30.21,West,270,0.0,2.0,87,0.00,,CLR,0.00,VWS V14.01,2013-03-03 03:30:00,
2013-03-02 21:31:00,8.3,5.0,30.21,West,279,0.0,0.0,87,0.00,,,0.00,weatherlink.com 1.10,2013-03-03 03:31:00,
2013-03-02 21:46:00,9.1,6.0,30.20,WSW,253,0.0,1.0,87,0.00,,,0.00,weatherlink.com 1.10,2013-03-03 03:46:00,
2013-03-02 22:00:00,8.6,5.5,30.21,WSW,248,0.0,2.0,87,0.00,,CLR,0.00,VWS V14.01,2013-03-03 04:00:00,
2013-03-02 22:01:00,8.5,5.0,30.21,WSW,253,0.0,0.0,87,0.00,,,0.00,weatherlink.com 1.10,2013-03-03 04:01:00,
2013-03-02 22:16:00,8.7,6.0,30.20,WSW,253,0.0,0.0,88,0.00,,,0.00,weatherlink.com 1.10,2013-03-03 04:16:00,
2013-03-02 22:30:00,8.2,4.9,30.20,WSW,248,0.0,0.0,86,0.00,,CLR,0.00,VWS V14.01,2013-03-03 04:30:00,
2013-03-02 22:31:00,8.1,5.0,30.20,WSW,253,0.0,0.0,86,0.00,,,0.00,weatherlink.com 1.10,2013-03-03 04:31:00,
2013-03-02 22:46:00,8.0,6.0,30.19,WSW,253,0.0,1.0,89,0.00,,,0.00,weatherlink.com 1.10,2013-03-03 04:46:00,
2013-03-02 23:00:00,8.3,5.2,30.19,WSW,248,0.0,1.0,87,0.00,,CLR,0.00,VWS V14.01,2013-03-03 05:00:00,
2013-03-02 23:01:00,8.2,5.0,30.19,WSW,253,0.0,1.0,87,0.00,,,0.00,weatherlink.com 1.10,2013-03-03 05:01:00,
2013-03-02 23:16:00,6.8,4.0,30.19,WSW,253,0.0,0.0,86,0.00,,,0.00,weatherlink.com 1.10,2013-03-03 05:16:00,
2013-03-02 23:30:00,7.3,4.8,30.18,WSW,248,0.0,0.0,89,0.00,,CLR,0.00,VWS V14.01,2013-03-03 05:30:00,
2013-03-02 23:31:00,7.3,5.0,30.18,WSW,253,0.0,0.0,89,0.00,,,0.00,weatherlink.com 1.10,2013-03-03 05:31:00,
2013-03-02 23:46:00,5.3,2.0,30.18,WSW,245,0.0,1.0,87,0.00,,,0.00,weatherlink.com 1.10,2013-03-03 05:46:00,